Sankoumaru 31 — JD2200 — position and weather

sailwx.info

Track history (hours):
 
Tides and Currents Weather Stations Pressure Air Temp Water Temp Dewpoint Dewpoint Depression Visibility Wind Speed Wind Dir Waves Ship Positions

Sankoumaru 31

Last reported at 2014-Nov-22 22:29 UTC. Time now 2014-Nov-23 21:50 UTC.
Position N 34°32' E 135°24'.

Length 75 m; draft 5 m.

Type: Cargo ship. MMSI: 431501842.

Date/timePositionNaut miles runAvg speedWind from/ knotsBaromVisibWave heightAir tempDewpointWater temp
2014-Nov-22 22:29N 34°32' E 135°24'9 9.5
2014-Nov-22 21:33N 34°28' E 135°14'1211.2
2014-Nov-22 20:27N 34°19' E 135°05'1011.5
2014-Nov-22 19:33N 34°09' E 135°03'  
2014-Nov-18 15:33N 35°20' E 139°42'  
2014-Nov-16 01:31N 35°29' E 139°51'1111.6
2014-Nov-16 00:33N 35°19' E 139°44'1210.9
2014-Nov-15 23:29N 35°08' E 139°45'25310.1
2014-Nov-14 22:31N 34°05' E 134°47'  
Track history (hours):
 
Tides and Currents Weather Stations Pressure Air Temp Water Temp Dewpoint Dewpoint Depression Visibility Wind Speed Wind Dir Waves Ship Positions

Sankoumaru 31

Last reported at 2014-Nov-22 22:29 UTC. Time now 2014-Nov-23 21:50 UTC.
Position N 34°32' E 135°24'.

Length 75 m; draft 5 m.

Type: Cargo ship. MMSI: 431501842.

Date/timePositionNaut miles runAvg speedWind from/ knotsBaromVisibWave heightAir tempDewpointWater temp
2014-Nov-22 22:29N 34°32' E 135°24'9 9.5
2014-Nov-22 21:33N 34°28' E 135°14'1211.2
2014-Nov-22 20:27N 34°19' E 135°05'1011.5
2014-Nov-22 19:33N 34°09' E 135°03'  
2014-Nov-18 15:33N 35°20' E 139°42'  
2014-Nov-16 01:31N 35°29' E 139°51'1111.6
2014-Nov-16 00:33N 35°19' E 139°44'1210.9
2014-Nov-15 23:29N 35°08' E 139°45'25310.1
2014-Nov-14 22:31N 34°05' E 134°47'  

Dump ship's entire track history